sensor_id;sensor_type;location;lat;lon;timestamp;P1;durP1;ratioP1;P2;durP2;ratioP2
4837;SDS011;2433;48.768;9.154;2022-12-31T00:00:35;0.80;;;0.70;;
4837;SDS011;2433;48.768;9.154;2022-12-31T00:03:05;0.70;;;0.60;;
4837;SDS011;2433;48.768;9.154;2022-12-31T00:05:32;0.60;;;0.50;;
4837;SDS011;2433;48.768;9.154;2022-12-31T00:08:00;0.60;;;0.53;;
4837;SDS011;2433;48.768;9.154;2022-12-31T00:10:26;2.00;;;0.60;;
4837;SDS011;2433;48.768;9.154;2022-12-31T00:12:52;0.97;;;0.70;;
4837;SDS011;2433;48.768;9.154;2022-12-31T00:15:17;0.80;;;0.60;;
4837;SDS011;2433;48.768;9.154;2022-12-31T00:17:43;0.67;;;0.50;;
4837;SDS011;2433;48.768;9.154;2022-12-31T00:20:09;0.70;;;0.40;;
4837;SDS011;2433;48.768;9.154;2022-12-31T00:22:35;0.93;;;0.50;;
4837;SDS011;2433;48.768;9.154;2022-12-31T00:25:01;1.20;;;0.80;;
4837;SDS011;2433;48.768;9.154;2022-12-31T00:27:29;0.50;;;0.50;;
4837;SDS011;2433;48.768;9.154;2022-12-31T00:29:55;0.80;;;0.50;;
4837;SDS011;2433;48.768;9.154;2022-12-31T00:32:20;1.50;;;0.80;;
4837;SDS011;2433;48.768;9.154;2022-12-31T00:34:46;1.37;;;0.57;;
4837;SDS011;2433;48.768;9.154;2022-12-31T00:37:11;1.63;;;0.67;;
4837;SDS011;2433;48.768;9.154;2022-12-31T00:39:37;0.77;;;0.47;;
4837;SDS011;2433;48.768;9.154;2022-12-31T00:42:02;2.77;;;0.70;;
4837;SDS011;2433;48.768;9.154;2022-12-31T00:44:28;0.50;;;0.40;;
4837;SDS011;2433;48.768;9.154;2022-12-31T00:46:55;0.93;;;0.70;;
4837;SDS011;2433;48.768;9.154;2022-12-31T00:49:20;0.60;;;0.60;;
4837;SDS011;2433;48.768;9.154;2022-12-31T00:51:46;0.50;;;0.40;;
4837;SDS011;2433;48.768;9.154;2022-12-31T00:54:11;0.90;;;0.70;;
4837;SDS011;2433;48.768;9.154;2022-12-31T00:56:37;1.43;;;0.53;;
4837;SDS011;2433;48.768;9.154;2022-12-31T00:59:02;0.67;;;0.60;;
4837;SDS011;2433;48.768;9.154;2022-12-31T01:01:29;0.60;;;0.50;;
4837;SDS011;2433;48.768;9.154;2022-12-31T01:03:58;0.50;;;0.50;;
4837;SDS011;2433;48.768;9.154;2022-12-31T01:06:25;1.27;;;0.80;;
4837;SDS011;2433;48.768;9.154;2022-12-31T01:08:52;1.10;;;0.60;;
4837;SDS011;2433;48.768;9.154;2022-12-31T01:11:19;0.80;;;0.60;;
4837;SDS011;2433;48.768;9.154;2022-12-31T01:16:15;0.50;;;0.40;;
4837;SDS011;2433;48.768;9.154;2022-12-31T01:18:41;0.67;;;0.67;;
4837;SDS011;2433;48.768;9.154;2022-12-31T01:21:08;0.80;;;0.50;;
4837;SDS011;2433;48.768;9.154;2022-12-31T01:23:35;0.73;;;0.40;;
4837;SDS011;2433;48.768;9.154;2022-12-31T01:26:01;0.70;;;0.50;;
4837;SDS011;2433;48.768;9.154;2022-12-31T01:28:29;0.80;;;0.50;;
4837;SDS011;2433;48.768;9.154;2022-12-31T01:30:55;4.33;;;0.50;;
4837;SDS011;2433;48.768;9.154;2022-12-31T01:33:20;2.40;;;0.73;;
4837;SDS011;2433;48.768;9.154;2022-12-31T01:35:46;0.73;;;0.57;;
4837;SDS011;2433;48.768;9.154;2022-12-31T01:38:12;1.40;;;0.60;;
4837;SDS011;2433;48.768;9.154;2022-12-31T01:40:38;0.60;;;0.40;;
4837;SDS011;2433;48.768;9.154;2022-12-31T01:43:05;1.43;;;0.40;;
4837;SDS011;2433;48.768;9.154;2022-12-31T01:45:42;0.70;;;0.60;;
4837;SDS011;2433;48.768;9.154;2022-12-31T01:48:11;1.20;;;0.53;;
4837;SDS011;2433;48.768;9.154;2022-12-31T01:50:39;0.57;;;0.50;;
4837;SDS011;2433;48.768;9.154;2022-12-31T01:53:06;0.40;;;0.30;;
4837;SDS011;2433;48.768;9.154;2022-12-31T01:55:37;1.20;;;0.57;;
4837;SDS011;2433;48.768;9.154;2022-12-31T01:58:18;0.83;;;0.50;;
4837;SDS011;2433;48.768;9.154;2022-12-31T02:00:46;0.80;;;0.50;;
4837;SDS011;2433;48.768;9.154;2022-12-31T02:03:12;1.27;;;0.53;;
4837;SDS011;2433;48.768;9.154;2022-12-31T02:05:40;0.60;;;0.53;;
4837;SDS011;2433;48.768;9.154;2022-12-31T02:08:10;0.70;;;0.53;;
4837;SDS011;2433;48.768;9.154;2022-12-31T02:10:36;0.80;;;0.63;;
4837;SDS011;2433;48.768;9.154;2022-12-31T02:13:02;0.70;;;0.47;;
4837;SDS011;2433;48.768;9.154;2022-12-31T02:15:33;0.50;;;0.33;;
4837;SDS011;2433;48.768;9.154;2022-12-31T02:18:10;1.43;;;0.40;;
4837;SDS011;2433;48.768;9.154;2022-12-31T02:21:02;1.00;;;0.40;;
4837;SDS011;2433;48.768;9.154;2022-12-31T02:29:21;1.33;;;0.70;;
4837;SDS011;2433;48.768;9.154;2022-12-31T02:31:54;1.77;;;0.80;;
4837;SDS011;2433;48.768;9.154;2022-12-31T02:34:57;0.50;;;0.50;;
4837;SDS011;2433;48.768;9.154;2022-12-31T02:37:16;1.03;;;0.60;;
4837;SDS011;2433;48.768;9.154;2022-12-31T02:39:44;0.50;;;0.30;;
4837;SDS011;2433;48.768;9.154;2022-12-31T02:42:10;1.10;;;0.50;;
4837;SDS011;2433;48.768;9.154;2022-12-31T02:44:37;0.63;;;0.50;;
4837;SDS011;2433;48.768;9.154;2022-12-31T02:52:05;0.70;;;0.50;;
4837;SDS011;2433;48.768;9.154;2022-12-31T02:57:25;0.60;;;0.40;;
4837;SDS011;2433;48.768;9.154;2022-12-31T03:00:21;1.30;;;1.00;;
4837;SDS011;2433;48.768;9.154;2022-12-31T03:03:05;0.50;;;0.40;;
4837;SDS011;2433;48.768;9.154;2022-12-31T03:05:33;0.50;;;0.40;;
4837;SDS011;2433;48.768;9.154;2022-12-31T03:08:02;0.80;;;0.70;;
4837;SDS011;2433;48.768;9.154;2022-12-31T03:10:27;1.70;;;0.70;;
4837;SDS011;2433;48.768;9.154;2022-12-31T03:12:53;0.80;;;0.57;;
4837;SDS011;2433;48.768;9.154;2022-12-31T03:15:23;0.70;;;0.70;;
4837;SDS011;2433;48.768;9.154;2022-12-31T03:18:04;0.80;;;0.60;;
4837;SDS011;2433;48.768;9.154;2022-12-31T03:20:51;0.87;;;0.50;;
4837;SDS011;2433;48.768;9.154;2022-12-31T03:23:38;0.80;;;0.50;;
4837;SDS011;2433;48.768;9.154;2022-12-31T03:26:06;0.60;;;0.40;;
4837;SDS011;2433;48.768;9.154;2022-12-31T03:28:35;0.90;;;0.50;;
4837;SDS011;2433;48.768;9.154;2022-12-31T03:31:01;1.23;;;0.57;;
4837;SDS011;2433;48.768;9.154;2022-12-31T03:33:31;0.97;;;0.60;;
4837;SDS011;2433;48.768;9.154;2022-12-31T03:36:01;2.00;;;0.40;;
4837;SDS011;2433;48.768;9.154;2022-12-31T03:38:28;1.37;;;0.53;;
4837;SDS011;2433;48.768;9.154;2022-12-31T03:40:53;0.90;;;0.40;;
4837;SDS011;2433;48.768;9.154;2022-12-31T03:43:19;0.90;;;0.40;;
4837;SDS011;2433;48.768;9.154;2022-12-31T03:45:48;0.57;;;0.40;;
4837;SDS011;2433;48.768;9.154;2022-12-31T03:48:15;1.90;;;0.70;;
4837;SDS011;2433;48.768;9.154;2022-12-31T03:50:42;1.90;;;0.60;;
4837;SDS011;2433;48.768;9.154;2022-12-31T03:53:07;0.80;;;0.50;;
4837;SDS011;2433;48.768;9.154;2022-12-31T03:55:33;0.83;;;0.40;;
4837;SDS011;2433;48.768;9.154;2022-12-31T03:57:58;1.00;;;0.60;;
4837;SDS011;2433;48.768;9.154;2022-12-31T04:00:24;0.60;;;0.50;;
4837;SDS011;2433;48.768;9.154;2022-12-31T04:02:49;0.60;;;0.50;;
4837;SDS011;2433;48.768;9.154;2022-12-31T04:05:15;0.90;;;0.50;;
4837;SDS011;2433;48.768;9.154;2022-12-31T04:07:42;1.60;;;0.50;;
4837;SDS011;2433;48.768;9.154;2022-12-31T04:10:09;0.60;;;0.40;;
4837;SDS011;2433;48.768;9.154;2022-12-31T04:12:36;1.20;;;0.50;;
4837;SDS011;2433;48.768;9.154;2022-12-31T04:15:02;1.07;;;0.63;;
4837;SDS011;2433;48.768;9.154;2022-12-31T04:17:29;0.60;;;0.60;;
4837;SDS011;2433;48.768;9.154;2022-12-31T04:19:55;0.73;;;0.40;;
4837;SDS011;2433;48.768;9.154;2022-12-31T04:22:20;1.43;;;1.07;;
4837;SDS011;2433;48.768;9.154;2022-12-31T04:24:46;1.00;;;0.67;;
4837;SDS011;2433;48.768;9.154;2022-12-31T04:27:12;0.80;;;0.50;;
4837;SDS011;2433;48.768;9.154;2022-12-31T04:29:38;0.50;;;0.30;;
4837;SDS011;2433;48.768;9.154;2022-12-31T04:32:04;0.50;;;0.40;;
4837;SDS011;2433;48.768;9.154;2022-12-31T04:34:30;0.50;;;0.40;;
4837;SDS011;2433;48.768;9.154;2022-12-31T04:36:56;0.97;;;0.60;;
4837;SDS011;2433;48.768;9.154;2022-12-31T04:39:22;0.80;;;0.40;;
4837;SDS011;2433;48.768;9.154;2022-12-31T04:41:48;1.50;;;0.53;;
4837;SDS011;2433;48.768;9.154;2022-12-31T04:44:15;2.30;;;0.60;;
4837;SDS011;2433;48.768;9.154;2022-12-31T04:46:40;0.50;;;0.37;;
4837;SDS011;2433;48.768;9.154;2022-12-31T04:49:06;2.07;;;0.57;;
4837;SDS011;2433;48.768;9.154;2022-12-31T04:51:32;0.50;;;0.40;;
4837;SDS011;2433;48.768;9.154;2022-12-31T04:53:58;1.60;;;0.57;;
4837;SDS011;2433;48.768;9.154;2022-12-31T04:56:23;0.50;;;0.43;;
4837;SDS011;2433;48.768;9.154;2022-12-31T04:58:49;0.70;;;0.47;;
4837;SDS011;2433;48.768;9.154;2022-12-31T05:01:15;0.70;;;0.40;;
4837;SDS011;2433;48.768;9.154;2022-12-31T05:03:41;0.60;;;0.40;;
4837;SDS011;2433;48.768;9.154;2022-12-31T05:06:08;2.53;;;0.73;;
4837;SDS011;2433;48.768;9.154;2022-12-31T05:08:36;0.50;;;0.40;;
4837;SDS011;2433;48.768;9.154;2022-12-31T05:11:02;0.80;;;0.47;;
4837;SDS011;2433;48.768;9.154;2022-12-31T05:13:27;0.77;;;0.40;;
4837;SDS011;2433;48.768;9.154;2022-12-31T05:15:53;0.60;;;0.50;;
4837;SDS011;2433;48.768;9.154;2022-12-31T05:18:20;0.50;;;0.30;;
4837;SDS011;2433;48.768;9.154;2022-12-31T05:20:46;0.70;;;0.57;;
4837;SDS011;2433;48.768;9.154;2022-12-31T05:23:12;0.90;;;0.60;;
4837;SDS011;2433;48.768;9.154;2022-12-31T05:25:40;0.40;;;0.30;;
4837;SDS011;2433;48.768;9.154;2022-12-31T05:28:06;0.93;;;0.50;;
4837;SDS011;2433;48.768;9.154;2022-12-31T05:30:32;0.60;;;0.47;;
4837;SDS011;2433;48.768;9.154;2022-12-31T05:32:57;0.50;;;0.40;;
4837;SDS011;2433;48.768;9.154;2022-12-31T05:35:23;0.93;;;0.50;;
4837;SDS011;2433;48.768;9.154;2022-12-31T05:37:48;1.33;;;0.70;;
4837;SDS011;2433;48.768;9.154;2022-12-31T05:40:14;0.60;;;0.53;;
4837;SDS011;2433;48.768;9.154;2022-12-31T05:42:40;1.17;;;0.80;;
4837;SDS011;2433;48.768;9.154;2022-12-31T05:45:05;0.60;;;0.40;;
4837;SDS011;2433;48.768;9.154;2022-12-31T05:47:31;1.73;;;0.60;;
4837;SDS011;2433;48.768;9.154;2022-12-31T05:49:57;0.70;;;0.50;;
4837;SDS011;2433;48.768;9.154;2022-12-31T05:52:23;0.60;;;0.40;;
4837;SDS011;2433;48.768;9.154;2022-12-31T05:54:50;0.50;;;0.47;;
4837;SDS011;2433;48.768;9.154;2022-12-31T05:57:16;0.60;;;0.50;;
4837;SDS011;2433;48.768;9.154;2022-12-31T05:59:41;1.07;;;0.77;;
4837;SDS011;2433;48.768;9.154;2022-12-31T06:02:07;1.43;;;0.67;;
4837;SDS011;2433;48.768;9.154;2022-12-31T06:04:32;0.73;;;0.50;;
4837;SDS011;2433;48.768;9.154;2022-12-31T06:06:58;0.60;;;0.60;;
4837;SDS011;2433;48.768;9.154;2022-12-31T06:09:24;0.83;;;0.80;;
4837;SDS011;2433;48.768;9.154;2022-12-31T06:11:50;1.23;;;0.60;;
4837;SDS011;2433;48.768;9.154;2022-12-31T06:14:15;0.50;;;0.50;;
4837;SDS011;2433;48.768;9.154;2022-12-31T06:16:41;0.70;;;0.43;;
4837;SDS011;2433;48.768;9.154;2022-12-31T06:19:07;0.70;;;0.50;;
4837;SDS011;2433;48.768;9.154;2022-12-31T06:21:33;0.83;;;0.50;;
4837;SDS011;2433;48.768;9.154;2022-12-31T06:23:58;0.80;;;0.67;;
4837;SDS011;2433;48.768;9.154;2022-12-31T06:26:24;0.63;;;0.50;;
4837;SDS011;2433;48.768;9.154;2022-12-31T06:28:51;0.70;;;0.50;;
4837;SDS011;2433;48.768;9.154;2022-12-31T06:31:16;0.60;;;0.43;;
4837;SDS011;2433;48.768;9.154;2022-12-31T06:33:42;0.80;;;0.50;;
4837;SDS011;2433;48.768;9.154;2022-12-31T06:36:10;0.60;;;0.60;;
4837;SDS011;2433;48.768;9.154;2022-12-31T06:38:37;0.90;;;0.40;;
4837;SDS011;2433;48.768;9.154;2022-12-31T06:41:05;0.80;;;0.53;;
4837;SDS011;2433;48.768;9.154;2022-12-31T06:43:31;0.57;;;0.30;;
4837;SDS011;2433;48.768;9.154;2022-12-31T06:46:04;0.53;;;0.43;;
4837;SDS011;2433;48.768;9.154;2022-12-31T06:48:32;0.50;;;0.50;;
4837;SDS011;2433;48.768;9.154;2022-12-31T06:51:04;1.00;;;0.50;;
4837;SDS011;2433;48.768;9.154;2022-12-31T06:53:31;0.70;;;0.57;;
4837;SDS011;2433;48.768;9.154;2022-12-31T06:55:58;0.60;;;0.60;;
4837;SDS011;2433;48.768;9.154;2022-12-31T06:58:30;0.57;;;0.47;;
4837;SDS011;2433;48.768;9.154;2022-12-31T07:01:02;0.60;;;0.50;;
4837;SDS011;2433;48.768;9.154;2022-12-31T07:03:39;1.13;;;0.67;;
4837;SDS011;2433;48.768;9.154;2022-12-31T07:06:10;1.97;;;0.50;;
4837;SDS011;2433;48.768;9.154;2022-12-31T07:08:44;1.17;;;0.60;;
4837;SDS011;2433;48.768;9.154;2022-12-31T07:11:21;1.10;;;0.63;;
4837;SDS011;2433;48.768;9.154;2022-12-31T07:13:53;0.70;;;0.53;;
4837;SDS011;2433;48.768;9.154;2022-12-31T07:22:36;0.60;;;0.40;;
4837;SDS011;2433;48.768;9.154;2022-12-31T07:25:02;0.80;;;0.50;;
4837;SDS011;2433;48.768;9.154;2022-12-31T07:30:16;0.67;;;0.40;;
4837;SDS011;2433;48.768;9.154;2022-12-31T07:43:51;1.33;;;0.80;;
4837;SDS011;2433;48.768;9.154;2022-12-31T07:48:50;0.70;;;0.57;;
4837;SDS011;2433;48.768;9.154;2022-12-31T07:51:16;0.97;;;0.50;;
4837;SDS011;2433;48.768;9.154;2022-12-31T07:53:42;0.57;;;0.40;;
4837;SDS011;2433;48.768;9.154;2022-12-31T07:56:08;0.70;;;0.50;;
4837;SDS011;2433;48.768;9.154;2022-12-31T08:01:04;0.50;;;0.30;;
4837;SDS011;2433;48.768;9.154;2022-12-31T08:06:11;0.83;;;0.40;;
4837;SDS011;2433;48.768;9.154;2022-12-31T08:11:29;0.60;;;0.40;;
4837;SDS011;2433;48.768;9.154;2022-12-31T08:14:11;0.50;;;0.50;;
4837;SDS011;2433;48.768;9.154;2022-12-31T08:16:38;1.00;;;0.60;;
4837;SDS011;2433;48.768;9.154;2022-12-31T08:19:04;0.50;;;0.47;;
4837;SDS011;2433;48.768;9.154;2022-12-31T08:26:53;0.40;;;0.40;;
4837;SDS011;2433;48.768;9.154;2022-12-31T08:29:33;0.80;;;0.60;;
4837;SDS011;2433;48.768;9.154;2022-12-31T08:32:08;1.07;;;0.40;;
4837;SDS011;2433;48.768;9.154;2022-12-31T08:37:21;1.27;;;0.77;;
4837;SDS011;2433;48.768;9.154;2022-12-31T08:40:13;2.13;;;0.90;;
4837;SDS011;2433;48.768;9.154;2022-12-31T08:45:51;1.10;;;0.70;;
4837;SDS011;2433;48.768;9.154;2022-12-31T08:48:24;1.03;;;0.60;;
4837;SDS011;2433;48.768;9.154;2022-12-31T08:51:11;0.70;;;0.57;;
4837;SDS011;2433;48.768;9.154;2022-12-31T08:53:39;0.50;;;0.40;;
4837;SDS011;2433;48.768;9.154;2022-12-31T08:56:28;1.23;;;1.03;;
4837;SDS011;2433;48.768;9.154;2022-12-31T09:01:42;0.50;;;0.33;;
4837;SDS011;2433;48.768;9.154;2022-12-31T09:04:14;0.70;;;0.40;;
4837;SDS011;2433;48.768;9.154;2022-12-31T09:07:05;1.40;;;0.60;;
4837;SDS011;2433;48.768;9.154;2022-12-31T09:09:36;1.27;;;0.93;;
4837;SDS011;2433;48.768;9.154;2022-12-31T09:12:08;1.37;;;0.67;;
4837;SDS011;2433;48.768;9.154;2022-12-31T09:15:11;0.60;;;0.50;;
4837;SDS011;2433;48.768;9.154;2022-12-31T09:17:43;1.03;;;0.70;;
4837;SDS011;2433;48.768;9.154;2022-12-31T09:22:42;1.00;;;0.50;;
4837;SDS011;2433;48.768;9.154;2022-12-31T09:25:11;0.80;;;0.70;;
4837;SDS011;2433;48.768;9.154;2022-12-31T09:27:43;1.13;;;0.60;;
4837;SDS011;2433;48.768;9.154;2022-12-31T09:30:15;1.77;;;0.60;;
4837;SDS011;2433;48.768;9.154;2022-12-31T09:49:37;1.13;;;0.53;;
4837;SDS011;2433;48.768;9.154;2022-12-31T09:57:54;0.60;;;0.40;;
4837;SDS011;2433;48.768;9.154;2022-12-31T10:37:32;0.70;;;0.40;;
4837;SDS011;2433;48.768;9.154;2022-12-31T10:40:08;1.80;;;0.80;;
4837;SDS011;2433;48.768;9.154;2022-12-31T10:42:51;0.60;;;0.40;;
4837;SDS011;2433;48.768;9.154;2022-12-31T10:45:46;1.50;;;0.63;;
4837;SDS011;2433;48.768;9.154;2022-12-31T10:56:44;5.17;;;0.67;;
4837;SDS011;2433;48.768;9.154;2022-12-31T11:05:04;0.83;;;0.70;;
4837;SDS011;2433;48.768;9.154;2022-12-31T11:11:00;0.70;;;0.50;;
4837;SDS011;2433;48.768;9.154;2022-12-31T11:16:15;1.13;;;0.60;;
4837;SDS011;2433;48.768;9.154;2022-12-31T11:18:49;0.80;;;0.40;;
4837;SDS011;2433;48.768;9.154;2022-12-31T11:35:48;0.40;;;0.30;;
4837;SDS011;2433;48.768;9.154;2022-12-31T11:38:37;1.23;;;0.40;;
4837;SDS011;2433;48.768;9.154;2022-12-31T11:41:18;0.50;;;0.40;;
4837;SDS011;2433;48.768;9.154;2022-12-31T11:46:33;0.60;;;0.37;;
4837;SDS011;2433;48.768;9.154;2022-12-31T11:57:33;0.40;;;0.30;;
4837;SDS011;2433;48.768;9.154;2022-12-31T12:00:12;0.40;;;0.30;;
4837;SDS011;2433;48.768;9.154;2022-12-31T12:02:42;0.70;;;0.50;;
4837;SDS011;2433;48.768;9.154;2022-12-31T12:05:11;0.60;;;0.43;;
4837;SDS011;2433;48.768;9.154;2022-12-31T12:07:38;1.80;;;0.50;;
4837;SDS011;2433;48.768;9.154;2022-12-31T12:10:13;0.70;;;0.50;;
4837;SDS011;2433;48.768;9.154;2022-12-31T12:12:43;0.70;;;0.40;;
4837;SDS011;2433;48.768;9.154;2022-12-31T12:15:09;1.53;;;0.60;;
4837;SDS011;2433;48.768;9.154;2022-12-31T12:17:40;0.67;;;0.33;;
4837;SDS011;2433;48.768;9.154;2022-12-31T12:20:17;0.60;;;0.60;;
4837;SDS011;2433;48.768;9.154;2022-12-31T12:22:50;0.70;;;0.70;;
4837;SDS011;2433;48.768;9.154;2022-12-31T12:25:19;0.60;;;0.30;;
4837;SDS011;2433;48.768;9.154;2022-12-31T12:27:46;0.60;;;0.40;;
4837;SDS011;2433;48.768;9.154;2022-12-31T12:30:22;0.70;;;0.40;;
4837;SDS011;2433;48.768;9.154;2022-12-31T12:32:50;0.70;;;0.40;;
4837;SDS011;2433;48.768;9.154;2022-12-31T12:35:18;0.40;;;0.30;;
4837;SDS011;2433;48.768;9.154;2022-12-31T12:37:57;0.60;;;0.40;;
4837;SDS011;2433;48.768;9.154;2022-12-31T12:40:29;1.13;;;0.50;;
4837;SDS011;2433;48.768;9.154;2022-12-31T12:42:55;0.70;;;0.50;;
4837;SDS011;2433;48.768;9.154;2022-12-31T12:45:22;0.60;;;0.50;;
4837;SDS011;2433;48.768;9.154;2022-12-31T12:47:55;0.50;;;0.40;;
4837;SDS011;2433;48.768;9.154;2022-12-31T12:50:24;1.20;;;0.50;;
4837;SDS011;2433;48.768;9.154;2022-12-31T12:56:25;1.17;;;0.63;;
4837;SDS011;2433;48.768;9.154;2022-12-31T13:04:44;0.70;;;0.60;;
4837;SDS011;2433;48.768;9.154;2022-12-31T13:13:20;2.27;;;0.57;;
4837;SDS011;2433;48.768;9.154;2022-12-31T13:21:25;0.57;;;0.40;;
4837;SDS011;2433;48.768;9.154;2022-12-31T13:23:58;0.60;;;0.40;;
4837;SDS011;2433;48.768;9.154;2022-12-31T13:26:39;0.40;;;0.30;;
4837;SDS011;2433;48.768;9.154;2022-12-31T13:29:13;0.40;;;0.30;;
4837;SDS011;2433;48.768;9.154;2022-12-31T13:31:42;0.70;;;0.40;;
4837;SDS011;2433;48.768;9.154;2022-12-31T13:34:13;1.80;;;0.60;;
4837;SDS011;2433;48.768;9.154;2022-12-31T13:36:42;0.40;;;0.30;;
4837;SDS011;2433;48.768;9.154;2022-12-31T13:39:19;0.50;;;0.50;;
4837;SDS011;2433;48.768;9.154;2022-12-31T13:41:55;0.70;;;0.50;;
4837;SDS011;2433;48.768;9.154;2022-12-31T13:44:44;1.63;;;0.63;;
4837;SDS011;2433;48.768;9.154;2022-12-31T13:47:15;0.60;;;0.40;;
4837;SDS011;2433;48.768;9.154;2022-12-31T13:50:07;1.43;;;0.93;;
4837;SDS011;2433;48.768;9.154;2022-12-31T13:52:41;1.17;;;0.30;;
4837;SDS011;2433;48.768;9.154;2022-12-31T14:00:29;1.17;;;0.60;;
4837;SDS011;2433;48.768;9.154;2022-12-31T14:03:12;0.53;;;0.40;;
4837;SDS011;2433;48.768;9.154;2022-12-31T14:05:57;0.50;;;0.30;;
4837;SDS011;2433;48.768;9.154;2022-12-31T14:08:25;0.80;;;0.50;;
4837;SDS011;2433;48.768;9.154;2022-12-31T14:23:09;0.77;;;0.57;;
4837;SDS011;2433;48.768;9.154;2022-12-31T14:25:21;0.70;;;0.47;;
4837;SDS011;2433;48.768;9.154;2022-12-31T14:28:09;0.70;;;0.40;;
4837;SDS011;2433;48.768;9.154;2022-12-31T14:30:41;0.93;;;0.50;;
4837;SDS011;2433;48.768;9.154;2022-12-31T14:36:31;0.60;;;0.37;;
4837;SDS011;2433;48.768;9.154;2022-12-31T14:47:51;0.90;;;0.63;;
4837;SDS011;2433;48.768;9.154;2022-12-31T14:50:25;0.73;;;0.40;;
4837;SDS011;2433;48.768;9.154;2022-12-31T14:55:27;0.93;;;0.40;;
4837;SDS011;2433;48.768;9.154;2022-12-31T14:57:54;0.60;;;0.40;;
4837;SDS011;2433;48.768;9.154;2022-12-31T15:06:03;2.30;;;0.70;;
4837;SDS011;2433;48.768;9.154;2022-12-31T15:23:59;1.40;;;1.00;;
4837;SDS011;2433;48.768;9.154;2022-12-31T15:26:28;1.07;;;0.97;;
4837;SDS011;2433;48.768;9.154;2022-12-31T15:28:56;1.10;;;0.87;;
4837;SDS011;2433;48.768;9.154;2022-12-31T15:31:24;3.00;;;1.13;;
4837;SDS011;2433;48.768;9.154;2022-12-31T15:33:57;0.73;;;0.73;;
4837;SDS011;2433;48.768;9.154;2022-12-31T15:36:31;2.37;;;1.20;;
4837;SDS011;2433;48.768;9.154;2022-12-31T15:39:17;3.20;;;1.40;;
4837;SDS011;2433;48.768;9.154;2022-12-31T15:41:48;1.00;;;1.00;;
4837;SDS011;2433;48.768;9.154;2022-12-31T15:46:45;1.43;;;1.30;;
4837;SDS011;2433;48.768;9.154;2022-12-31T15:49:19;1.10;;;0.97;;
4837;SDS011;2433;48.768;9.154;2022-12-31T15:54:26;1.20;;;1.00;;
4837;SDS011;2433;48.768;9.154;2022-12-31T15:56:58;1.83;;;1.20;;
4837;SDS011;2433;48.768;9.154;2022-12-31T15:59:25;2.13;;;1.70;;
4837;SDS011;2433;48.768;9.154;2022-12-31T16:01:51;1.10;;;1.00;;
4837;SDS011;2433;48.768;9.154;2022-12-31T16:04:22;1.60;;;1.03;;
4837;SDS011;2433;48.768;9.154;2022-12-31T16:06:50;1.90;;;1.03;;
4837;SDS011;2433;48.768;9.154;2022-12-31T16:09:23;1.53;;;1.03;;
4837;SDS011;2433;48.768;9.154;2022-12-31T16:11:50;1.57;;;0.97;;
4837;SDS011;2433;48.768;9.154;2022-12-31T16:14:23;1.27;;;1.03;;
4837;SDS011;2433;48.768;9.154;2022-12-31T16:16:52;1.10;;;0.77;;
4837;SDS011;2433;48.768;9.154;2022-12-31T16:19:26;0.97;;;0.83;;
4837;SDS011;2433;48.768;9.154;2022-12-31T16:22:01;1.37;;;1.00;;
4837;SDS011;2433;48.768;9.154;2022-12-31T16:24:31;1.53;;;1.07;;
4837;SDS011;2433;48.768;9.154;2022-12-31T16:27:15;1.10;;;1.00;;
4837;SDS011;2433;48.768;9.154;2022-12-31T16:29:43;1.30;;;1.20;;
4837;SDS011;2433;48.768;9.154;2022-12-31T16:32:13;1.20;;;1.10;;
4837;SDS011;2433;48.768;9.154;2022-12-31T16:34:40;1.40;;;1.30;;
4837;SDS011;2433;48.768;9.154;2022-12-31T16:37:12;2.67;;;1.73;;
4837;SDS011;2433;48.768;9.154;2022-12-31T16:40:06;4.07;;;2.60;;
4837;SDS011;2433;48.768;9.154;2022-12-31T16:42:36;3.93;;;3.30;;
4837;SDS011;2433;48.768;9.154;2022-12-31T16:45:15;2.90;;;2.43;;
4837;SDS011;2433;48.768;9.154;2022-12-31T16:47:54;2.80;;;2.40;;
4837;SDS011;2433;48.768;9.154;2022-12-31T16:50:21;2.67;;;2.13;;
4837;SDS011;2433;48.768;9.154;2022-12-31T16:52:48;3.23;;;1.83;;
4837;SDS011;2433;48.768;9.154;2022-12-31T16:55:22;2.03;;;1.70;;
4837;SDS011;2433;48.768;9.154;2022-12-31T16:57:52;2.73;;;1.80;;
4837;SDS011;2433;48.768;9.154;2022-12-31T17:00:20;3.03;;;1.60;;
4837;SDS011;2433;48.768;9.154;2022-12-31T17:03:11;2.23;;;2.03;;
4837;SDS011;2433;48.768;9.154;2022-12-31T17:16:29;4.97;;;3.47;;
4837;SDS011;2433;48.768;9.154;2022-12-31T17:18:55;5.87;;;3.07;;
4837;SDS011;2433;48.768;9.154;2022-12-31T17:21:20;4.87;;;3.20;;
4837;SDS011;2433;48.768;9.154;2022-12-31T17:23:53;7.17;;;3.10;;
4837;SDS011;2433;48.768;9.154;2022-12-31T17:26:21;5.07;;;3.60;;
4837;SDS011;2433;48.768;9.154;2022-12-31T17:28:50;3.87;;;2.93;;
4837;SDS011;2433;48.768;9.154;2022-12-31T17:36:39;4.33;;;3.70;;
4837;SDS011;2433;48.768;9.154;2022-12-31T17:39:15;9.83;;;7.77;;
4837;SDS011;2433;48.768;9.154;2022-12-31T17:41:43;5.87;;;5.33;;
4837;SDS011;2433;48.768;9.154;2022-12-31T17:44:13;5.33;;;4.83;;
4837;SDS011;2433;48.768;9.154;2022-12-31T17:46:41;4.27;;;3.10;;
4837;SDS011;2433;48.768;9.154;2022-12-31T17:49:07;5.10;;;3.60;;
4837;SDS011;2433;48.768;9.154;2022-12-31T17:51:34;4.23;;;3.90;;
4837;SDS011;2433;48.768;9.154;2022-12-31T17:53:59;5.90;;;4.73;;
4837;SDS011;2433;48.768;9.154;2022-12-31T17:56:25;4.47;;;3.30;;
4837;SDS011;2433;48.768;9.154;2022-12-31T17:58:51;4.07;;;3.73;;
4837;SDS011;2433;48.768;9.154;2022-12-31T18:01:19;7.80;;;5.23;;
4837;SDS011;2433;48.768;9.154;2022-12-31T18:03:46;4.80;;;3.60;;
4837;SDS011;2433;48.768;9.154;2022-12-31T18:06:15;4.87;;;4.37;;
4837;SDS011;2433;48.768;9.154;2022-12-31T18:08:40;4.97;;;4.00;;
4837;SDS011;2433;48.768;9.154;2022-12-31T18:11:06;4.73;;;3.97;;
4837;SDS011;2433;48.768;9.154;2022-12-31T18:13:35;6.30;;;5.10;;
4837;SDS011;2433;48.768;9.154;2022-12-31T18:16:01;5.13;;;4.10;;
4837;SDS011;2433;48.768;9.154;2022-12-31T18:18:27;4.73;;;3.47;;
4837;SDS011;2433;48.768;9.154;2022-12-31T18:20:57;4.83;;;3.63;;
4837;SDS011;2433;48.768;9.154;2022-12-31T18:25:53;4.33;;;3.50;;
4837;SDS011;2433;48.768;9.154;2022-12-31T18:28:19;3.73;;;3.40;;
4837;SDS011;2433;48.768;9.154;2022-12-31T18:30:44;3.60;;;3.30;;
4837;SDS011;2433;48.768;9.154;2022-12-31T18:33:11;9.93;;;6.80;;
4837;SDS011;2433;48.768;9.154;2022-12-31T18:35:37;5.70;;;4.67;;
4837;SDS011;2433;48.768;9.154;2022-12-31T18:38:14;4.90;;;4.00;;
4837;SDS011;2433;48.768;9.154;2022-12-31T18:40:41;5.63;;;5.07;;
4837;SDS011;2433;48.768;9.154;2022-12-31T18:43:12;9.60;;;8.60;;
4837;SDS011;2433;48.768;9.154;2022-12-31T18:45:39;20.70;;;17.27;;
4837;SDS011;2433;48.768;9.154;2022-12-31T18:48:05;17.27;;;10.70;;
4837;SDS011;2433;48.768;9.154;2022-12-31T18:50:31;4.90;;;4.10;;
4837;SDS011;2433;48.768;9.154;2022-12-31T18:52:57;8.43;;;6.33;;
4837;SDS011;2433;48.768;9.154;2022-12-31T18:55:24;6.70;;;5.07;;
4837;SDS011;2433;48.768;9.154;2022-12-31T18:57:51;10.20;;;7.70;;
4837;SDS011;2433;48.768;9.154;2022-12-31T19:00:17;7.27;;;5.50;;
4837;SDS011;2433;48.768;9.154;2022-12-31T19:02:43;7.67;;;5.37;;
4837;SDS011;2433;48.768;9.154;2022-12-31T19:05:17;6.10;;;5.47;;
4837;SDS011;2433;48.768;9.154;2022-12-31T19:07:51;4.33;;;3.83;;
4837;SDS011;2433;48.768;9.154;2022-12-31T19:10:16;5.10;;;4.60;;
4837;SDS011;2433;48.768;9.154;2022-12-31T19:12:42;7.30;;;5.27;;
4837;SDS011;2433;48.768;9.154;2022-12-31T19:15:13;7.10;;;4.77;;
4837;SDS011;2433;48.768;9.154;2022-12-31T19:17:44;5.43;;;4.67;;
4837;SDS011;2433;48.768;9.154;2022-12-31T19:20:09;3.80;;;3.30;;
4837;SDS011;2433;48.768;9.154;2022-12-31T19:22:35;4.23;;;3.37;;
4837;SDS011;2433;48.768;9.154;2022-12-31T19:25:00;2.73;;;2.30;;
4837;SDS011;2433;48.768;9.154;2022-12-31T19:27:26;3.70;;;2.73;;
4837;SDS011;2433;48.768;9.154;2022-12-31T19:29:52;3.37;;;3.07;;
4837;SDS011;2433;48.768;9.154;2022-12-31T19:32:17;4.23;;;3.20;;
4837;SDS011;2433;48.768;9.154;2022-12-31T19:34:43;3.43;;;3.13;;
4837;SDS011;2433;48.768;9.154;2022-12-31T19:37:10;4.63;;;3.63;;
4837;SDS011;2433;48.768;9.154;2022-12-31T19:39:39;5.33;;;3.73;;
4837;SDS011;2433;48.768;9.154;2022-12-31T19:42:04;4.73;;;3.83;;
4837;SDS011;2433;48.768;9.154;2022-12-31T19:44:30;6.60;;;3.90;;
4837;SDS011;2433;48.768;9.154;2022-12-31T19:46:56;3.20;;;2.70;;
4837;SDS011;2433;48.768;9.154;2022-12-31T19:49:22;6.03;;;2.97;;
4837;SDS011;2433;48.768;9.154;2022-12-31T19:51:47;4.67;;;3.13;;
4837;SDS011;2433;48.768;9.154;2022-12-31T19:54:13;3.13;;;2.70;;
4837;SDS011;2433;48.768;9.154;2022-12-31T19:56:38;3.00;;;2.70;;